sensor_id;sensor_type;location;lat;lon;timestamp;P1;durP1;ratioP1;P2;durP2;ratioP2
6997;SDS011;3539;47.982;12.238;2023-02-15T00:01:24;21.83;;;15.27;;
6997;SDS011;3539;47.982;12.238;2023-02-15T00:03:50;23.10;;;14.60;;
6997;SDS011;3539;47.982;12.238;2023-02-15T00:06:17;23.97;;;15.50;;
6997;SDS011;3539;47.982;12.238;2023-02-15T00:08:44;24.53;;;16.17;;
6997;SDS011;3539;47.982;12.238;2023-02-15T00:11:12;21.33;;;15.07;;
6997;SDS011;3539;47.982;12.238;2023-02-15T00:13:40;21.10;;;14.87;;
6997;SDS011;3539;47.982;12.238;2023-02-15T00:16:07;18.27;;;13.73;;
6997;SDS011;3539;47.982;12.238;2023-02-15T00:18:37;16.90;;;12.73;;
6997;SDS011;3539;47.982;12.238;2023-02-15T00:21:04;19.53;;;14.13;;
6997;SDS011;3539;47.982;12.238;2023-02-15T00:23:31;19.57;;;14.10;;
6997;SDS011;3539;47.982;12.238;2023-02-15T00:26:04;45.37;;;12.30;;
6997;SDS011;3539;47.982;12.238;2023-02-15T00:28:32;19.43;;;13.03;;
6997;SDS011;3539;47.982;12.238;2023-02-15T00:31:03;20.67;;;13.83;;
6997;SDS011;3539;47.982;12.238;2023-02-15T00:33:33;20.80;;;14.60;;
6997;SDS011;3539;47.982;12.238;2023-02-15T00:36:01;21.20;;;14.83;;
6997;SDS011;3539;47.982;12.238;2023-02-15T00:38:30;19.40;;;13.93;;
6997;SDS011;3539;47.982;12.238;2023-02-15T00:40:57;18.57;;;13.43;;
6997;SDS011;3539;47.982;12.238;2023-02-15T00:43:25;19.53;;;13.90;;
6997;SDS011;3539;47.982;12.238;2023-02-15T00:45:52;17.50;;;13.10;;
6997;SDS011;3539;47.982;12.238;2023-02-15T00:48:18;18.00;;;12.83;;
6997;SDS011;3539;47.982;12.238;2023-02-15T00:50:46;17.17;;;12.83;;
6997;SDS011;3539;47.982;12.238;2023-02-15T00:53:14;18.57;;;14.07;;
6997;SDS011;3539;47.982;12.238;2023-02-15T00:55:41;19.73;;;13.37;;
6997;SDS011;3539;47.982;12.238;2023-02-15T00:58:08;15.73;;;12.47;;
6997;SDS011;3539;47.982;12.238;2023-02-15T01:00:36;16.97;;;12.80;;
6997;SDS011;3539;47.982;12.238;2023-02-15T01:03:03;17.93;;;12.73;;
6997;SDS011;3539;47.982;12.238;2023-02-15T01:05:30;19.83;;;12.87;;
6997;SDS011;3539;47.982;12.238;2023-02-15T01:07:57;18.33;;;12.63;;
6997;SDS011;3539;47.982;12.238;2023-02-15T01:10:25;18.07;;;12.90;;
6997;SDS011;3539;47.982;12.238;2023-02-15T01:12:53;16.17;;;12.23;;
6997;SDS011;3539;47.982;12.238;2023-02-15T01:15:20;16.70;;;12.43;;
6997;SDS011;3539;47.982;12.238;2023-02-15T01:17:49;18.53;;;12.87;;
6997;SDS011;3539;47.982;12.238;2023-02-15T01:20:17;22.07;;;13.47;;
6997;SDS011;3539;47.982;12.238;2023-02-15T01:22:44;28.47;;;13.07;;
6997;SDS011;3539;47.982;12.238;2023-02-15T01:25:11;20.47;;;13.57;;
6997;SDS011;3539;47.982;12.238;2023-02-15T01:27:39;24.80;;;13.57;;
6997;SDS011;3539;47.982;12.238;2023-02-15T01:30:06;19.20;;;12.83;;
6997;SDS011;3539;47.982;12.238;2023-02-15T01:32:34;22.97;;;12.67;;
6997;SDS011;3539;47.982;12.238;2023-02-15T01:35:00;16.80;;;12.53;;
6997;SDS011;3539;47.982;12.238;2023-02-15T01:37:29;18.17;;;12.83;;
6997;SDS011;3539;47.982;12.238;2023-02-15T01:39:56;20.33;;;13.30;;
6997;SDS011;3539;47.982;12.238;2023-02-15T01:42:25;23.60;;;13.03;;
6997;SDS011;3539;47.982;12.238;2023-02-15T01:44:54;25.93;;;13.50;;
6997;SDS011;3539;47.982;12.238;2023-02-15T01:47:23;41.30;;;12.87;;
6997;SDS011;3539;47.982;12.238;2023-02-15T01:49:56;30.77;;;13.63;;
6997;SDS011;3539;47.982;12.238;2023-02-15T01:52:26;34.83;;;13.70;;
6997;SDS011;3539;47.982;12.238;2023-02-15T01:54:53;22.80;;;13.13;;
6997;SDS011;3539;47.982;12.238;2023-02-15T01:57:22;21.63;;;14.33;;
6997;SDS011;3539;47.982;12.238;2023-02-15T01:59:51;19.43;;;13.43;;
6997;SDS011;3539;47.982;12.238;2023-02-15T02:02:20;24.23;;;14.17;;
6997;SDS011;3539;47.982;12.238;2023-02-15T02:04:50;17.93;;;12.73;;
6997;SDS011;3539;47.982;12.238;2023-02-15T02:07:21;25.50;;;14.23;;
6997;SDS011;3539;47.982;12.238;2023-02-15T02:09:49;28.30;;;12.47;;
6997;SDS011;3539;47.982;12.238;2023-02-15T02:12:16;30.07;;;13.87;;
6997;SDS011;3539;47.982;12.238;2023-02-15T02:14:44;22.37;;;13.23;;
6997;SDS011;3539;47.982;12.238;2023-02-15T02:17:14;18.83;;;14.63;;
6997;SDS011;3539;47.982;12.238;2023-02-15T02:25:29;23.03;;;14.80;;
6997;SDS011;3539;47.982;12.238;2023-02-15T02:28:19;24.13;;;15.10;;
6997;SDS011;3539;47.982;12.238;2023-02-15T02:31:05;27.87;;;14.77;;
6997;SDS011;3539;47.982;12.238;2023-02-15T02:33:58;23.23;;;14.40;;
6997;SDS011;3539;47.982;12.238;2023-02-15T02:36:30;20.17;;;13.43;;
6997;SDS011;3539;47.982;12.238;2023-02-15T02:39:03;32.77;;;14.10;;
6997;SDS011;3539;47.982;12.238;2023-02-15T02:41:36;24.90;;;14.43;;
6997;SDS011;3539;47.982;12.238;2023-02-15T02:44:07;26.70;;;14.37;;
6997;SDS011;3539;47.982;12.238;2023-02-15T02:46:40;29.20;;;13.70;;
6997;SDS011;3539;47.982;12.238;2023-02-15T02:49:14;23.13;;;12.77;;
6997;SDS011;3539;47.982;12.238;2023-02-15T02:51:40;24.83;;;13.37;;
6997;SDS011;3539;47.982;12.238;2023-02-15T02:54:07;28.87;;;13.93;;
6997;SDS011;3539;47.982;12.238;2023-02-15T02:56:35;35.63;;;12.90;;
6997;SDS011;3539;47.982;12.238;2023-02-15T02:59:05;18.57;;;13.10;;
6997;SDS011;3539;47.982;12.238;2023-02-15T03:01:34;29.93;;;12.90;;
6997;SDS011;3539;47.982;12.238;2023-02-15T03:04:03;20.90;;;13.33;;
6997;SDS011;3539;47.982;12.238;2023-02-15T03:06:36;40.80;;;13.60;;
6997;SDS011;3539;47.982;12.238;2023-02-15T03:09:08;44.93;;;13.27;;
6997;SDS011;3539;47.982;12.238;2023-02-15T03:11:39;23.20;;;13.20;;
6997;SDS011;3539;47.982;12.238;2023-02-15T03:14:07;20.53;;;14.03;;
6997;SDS011;3539;47.982;12.238;2023-02-15T03:16:33;42.53;;;14.17;;
6997;SDS011;3539;47.982;12.238;2023-02-15T03:19:01;27.63;;;14.00;;
6997;SDS011;3539;47.982;12.238;2023-02-15T03:21:33;38.10;;;13.97;;
6997;SDS011;3539;47.982;12.238;2023-02-15T03:24:04;27.27;;;14.73;;
6997;SDS011;3539;47.982;12.238;2023-02-15T03:26:34;25.70;;;13.57;;
6997;SDS011;3539;47.982;12.238;2023-02-15T03:29:02;22.60;;;14.63;;
6997;SDS011;3539;47.982;12.238;2023-02-15T03:31:31;24.67;;;15.10;;
6997;SDS011;3539;47.982;12.238;2023-02-15T03:34:00;23.37;;;14.73;;
6997;SDS011;3539;47.982;12.238;2023-02-15T03:36:29;25.37;;;16.40;;
6997;SDS011;3539;47.982;12.238;2023-02-15T03:39:02;22.03;;;14.33;;
6997;SDS011;3539;47.982;12.238;2023-02-15T03:41:32;27.20;;;15.17;;
6997;SDS011;3539;47.982;12.238;2023-02-15T03:44:01;27.87;;;13.73;;
6997;SDS011;3539;47.982;12.238;2023-02-15T03:46:31;18.17;;;13.60;;
6997;SDS011;3539;47.982;12.238;2023-02-15T03:49:05;33.53;;;13.40;;
6997;SDS011;3539;47.982;12.238;2023-02-15T03:51:35;26.10;;;14.60;;
6997;SDS011;3539;47.982;12.238;2023-02-15T03:54:05;28.93;;;14.47;;
6997;SDS011;3539;47.982;12.238;2023-02-15T03:56:34;24.07;;;13.63;;
6997;SDS011;3539;47.982;12.238;2023-02-15T03:59:02;23.93;;;13.97;;
6997;SDS011;3539;47.982;12.238;2023-02-15T04:01:47;42.50;;;14.23;;
6997;SDS011;3539;47.982;12.238;2023-02-15T04:04:24;20.93;;;12.87;;
6997;SDS011;3539;47.982;12.238;2023-02-15T04:06:52;31.33;;;14.00;;
6997;SDS011;3539;47.982;12.238;2023-02-15T04:09:20;23.87;;;14.70;;
6997;SDS011;3539;47.982;12.238;2023-02-15T04:12:04;19.57;;;13.77;;
6997;SDS011;3539;47.982;12.238;2023-02-15T04:14:31;21.30;;;14.50;;
6997;SDS011;3539;47.982;12.238;2023-02-15T04:17:15;23.47;;;14.03;;
6997;SDS011;3539;47.982;12.238;2023-02-15T04:19:42;22.20;;;14.30;;
6997;SDS011;3539;47.982;12.238;2023-02-15T04:22:26;20.77;;;14.03;;
6997;SDS011;3539;47.982;12.238;2023-02-15T04:25:12;24.70;;;13.97;;
6997;SDS011;3539;47.982;12.238;2023-02-15T04:27:39;24.47;;;14.60;;
6997;SDS011;3539;47.982;12.238;2023-02-15T04:30:08;21.67;;;14.97;;
6997;SDS011;3539;47.982;12.238;2023-02-15T04:32:36;20.40;;;14.10;;
6997;SDS011;3539;47.982;12.238;2023-02-15T04:35:04;20.67;;;14.57;;
6997;SDS011;3539;47.982;12.238;2023-02-15T04:37:31;22.97;;;14.17;;
6997;SDS011;3539;47.982;12.238;2023-02-15T04:39:58;19.53;;;14.27;;
6997;SDS011;3539;47.982;12.238;2023-02-15T04:42:26;23.70;;;14.77;;
6997;SDS011;3539;47.982;12.238;2023-02-15T04:44:53;22.53;;;13.97;;
6997;SDS011;3539;47.982;12.238;2023-02-15T04:47:20;21.50;;;14.23;;
6997;SDS011;3539;47.982;12.238;2023-02-15T04:49:47;21.20;;;14.00;;
6997;SDS011;3539;47.982;12.238;2023-02-15T04:52:14;21.63;;;13.83;;
6997;SDS011;3539;47.982;12.238;2023-02-15T04:54:42;23.00;;;15.13;;
6997;SDS011;3539;47.982;12.238;2023-02-15T04:57:09;28.97;;;18.57;;
6997;SDS011;3539;47.982;12.238;2023-02-15T04:59:37;31.00;;;16.20;;
6997;SDS011;3539;47.982;12.238;2023-02-15T05:02:03;23.17;;;14.70;;
6997;SDS011;3539;47.982;12.238;2023-02-15T05:04:30;44.40;;;20.90;;
6997;SDS011;3539;47.982;12.238;2023-02-15T05:06:57;24.93;;;17.40;;
6997;SDS011;3539;47.982;12.238;2023-02-15T05:09:24;22.90;;;15.47;;
6997;SDS011;3539;47.982;12.238;2023-02-15T05:11:50;19.63;;;14.63;;
6997;SDS011;3539;47.982;12.238;2023-02-15T05:14:17;20.60;;;13.40;;
6997;SDS011;3539;47.982;12.238;2023-02-15T05:16:45;21.73;;;14.00;;
6997;SDS011;3539;47.982;12.238;2023-02-15T05:19:12;21.30;;;15.13;;
6997;SDS011;3539;47.982;12.238;2023-02-15T05:21:39;20.30;;;14.13;;
6997;SDS011;3539;47.982;12.238;2023-02-15T05:24:05;19.73;;;13.77;;
6997;SDS011;3539;47.982;12.238;2023-02-15T05:26:53;20.03;;;13.70;;
6997;SDS011;3539;47.982;12.238;2023-02-15T05:29:37;20.03;;;13.90;;
6997;SDS011;3539;47.982;12.238;2023-02-15T05:32:05;20.53;;;14.10;;
6997;SDS011;3539;47.982;12.238;2023-02-15T05:34:32;20.37;;;13.93;;
6997;SDS011;3539;47.982;12.238;2023-02-15T05:36:59;21.40;;;15.17;;
6997;SDS011;3539;47.982;12.238;2023-02-15T05:39:25;20.70;;;14.03;;
6997;SDS011;3539;47.982;12.238;2023-02-15T05:41:52;21.93;;;14.77;;
6997;SDS011;3539;47.982;12.238;2023-02-15T05:44:19;20.87;;;14.03;;
6997;SDS011;3539;47.982;12.238;2023-02-15T05:46:45;18.80;;;13.17;;
6997;SDS011;3539;47.982;12.238;2023-02-15T05:49:13;22.37;;;13.63;;
6997;SDS011;3539;47.982;12.238;2023-02-15T05:51:40;26.50;;;14.07;;
6997;SDS011;3539;47.982;12.238;2023-02-15T05:54:07;25.07;;;14.73;;
6997;SDS011;3539;47.982;12.238;2023-02-15T05:56:33;25.03;;;15.93;;
6997;SDS011;3539;47.982;12.238;2023-02-15T05:59:00;21.83;;;14.57;;
6997;SDS011;3539;47.982;12.238;2023-02-15T06:01:27;24.87;;;15.80;;
6997;SDS011;3539;47.982;12.238;2023-02-15T06:03:53;24.47;;;14.57;;
6997;SDS011;3539;47.982;12.238;2023-02-15T06:06:22;23.43;;;15.97;;
6997;SDS011;3539;47.982;12.238;2023-02-15T06:08:48;28.97;;;15.33;;
6997;SDS011;3539;47.982;12.238;2023-02-15T06:11:15;24.47;;;15.93;;
6997;SDS011;3539;47.982;12.238;2023-02-15T06:13:42;24.73;;;16.13;;
6997;SDS011;3539;47.982;12.238;2023-02-15T06:16:09;26.47;;;16.60;;
6997;SDS011;3539;47.982;12.238;2023-02-15T06:18:35;24.20;;;15.87;;
6997;SDS011;3539;47.982;12.238;2023-02-15T06:21:02;24.33;;;15.67;;
6997;SDS011;3539;47.982;12.238;2023-02-15T06:23:30;23.40;;;15.03;;
6997;SDS011;3539;47.982;12.238;2023-02-15T06:26:01;23.77;;;15.63;;
6997;SDS011;3539;47.982;12.238;2023-02-15T06:28:28;25.60;;;15.70;;
6997;SDS011;3539;47.982;12.238;2023-02-15T06:30:55;25.63;;;15.80;;
6997;SDS011;3539;47.982;12.238;2023-02-15T06:33:21;22.83;;;15.13;;
6997;SDS011;3539;47.982;12.238;2023-02-15T06:35:48;22.63;;;15.00;;
6997;SDS011;3539;47.982;12.238;2023-02-15T06:38:15;23.30;;;15.17;;
6997;SDS011;3539;47.982;12.238;2023-02-15T06:40:43;23.77;;;15.30;;
6997;SDS011;3539;47.982;12.238;2023-02-15T06:43:10;24.73;;;16.57;;
6997;SDS011;3539;47.982;12.238;2023-02-15T06:45:37;26.47;;;16.73;;
6997;SDS011;3539;47.982;12.238;2023-02-15T06:48:04;27.10;;;16.53;;
6997;SDS011;3539;47.982;12.238;2023-02-15T06:50:32;23.13;;;15.53;;
6997;SDS011;3539;47.982;12.238;2023-02-15T06:52:58;21.40;;;14.93;;
6997;SDS011;3539;47.982;12.238;2023-02-15T06:55:25;20.50;;;14.27;;
6997;SDS011;3539;47.982;12.238;2023-02-15T06:57:53;22.50;;;13.50;;
6997;SDS011;3539;47.982;12.238;2023-02-15T07:00:20;21.87;;;14.93;;
6997;SDS011;3539;47.982;12.238;2023-02-15T07:02:48;22.43;;;15.60;;
6997;SDS011;3539;47.982;12.238;2023-02-15T07:05:20;25.17;;;15.40;;
6997;SDS011;3539;47.982;12.238;2023-02-15T07:07:47;22.53;;;14.30;;
6997;SDS011;3539;47.982;12.238;2023-02-15T07:10:14;26.20;;;17.13;;
6997;SDS011;3539;47.982;12.238;2023-02-15T07:12:40;24.93;;;16.60;;
6997;SDS011;3539;47.982;12.238;2023-02-15T07:15:08;23.83;;;15.77;;
6997;SDS011;3539;47.982;12.238;2023-02-15T07:17:35;20.97;;;14.83;;
6997;SDS011;3539;47.982;12.238;2023-02-15T07:20:02;20.87;;;14.30;;
6997;SDS011;3539;47.982;12.238;2023-02-15T07:22:29;24.53;;;15.27;;
6997;SDS011;3539;47.982;12.238;2023-02-15T07:24:55;22.03;;;14.90;;
6997;SDS011;3539;47.982;12.238;2023-02-15T07:27:22;20.70;;;14.23;;
6997;SDS011;3539;47.982;12.238;2023-02-15T07:29:49;17.90;;;13.57;;
6997;SDS011;3539;47.982;12.238;2023-02-15T07:32:17;21.90;;;14.33;;
6997;SDS011;3539;47.982;12.238;2023-02-15T07:34:44;23.40;;;16.17;;
6997;SDS011;3539;47.982;12.238;2023-02-15T07:37:11;19.27;;;14.50;;
6997;SDS011;3539;47.982;12.238;2023-02-15T07:39:37;22.33;;;16.33;;
6997;SDS011;3539;47.982;12.238;2023-02-15T07:42:04;21.00;;;14.77;;
6997;SDS011;3539;47.982;12.238;2023-02-15T07:44:31;20.27;;;14.40;;
6997;SDS011;3539;47.982;12.238;2023-02-15T07:46:57;18.53;;;13.77;;
6997;SDS011;3539;47.982;12.238;2023-02-15T07:49:25;18.57;;;13.33;;
6997;SDS011;3539;47.982;12.238;2023-02-15T07:51:52;17.30;;;13.50;;
6997;SDS011;3539;47.982;12.238;2023-02-15T07:54:19;17.47;;;12.90;;
6997;SDS011;3539;47.982;12.238;2023-02-15T07:56:45;16.37;;;12.50;;
6997;SDS011;3539;47.982;12.238;2023-02-15T07:59:12;17.93;;;13.00;;
6997;SDS011;3539;47.982;12.238;2023-02-15T08:01:39;16.60;;;12.77;;
6997;SDS011;3539;47.982;12.238;2023-02-15T08:04:06;16.30;;;12.53;;
6997;SDS011;3539;47.982;12.238;2023-02-15T08:06:36;18.70;;;12.87;;
6997;SDS011;3539;47.982;12.238;2023-02-15T08:09:03;15.43;;;11.73;;
6997;SDS011;3539;47.982;12.238;2023-02-15T08:11:31;14.93;;;12.23;;
6997;SDS011;3539;47.982;12.238;2023-02-15T08:14:02;16.57;;;12.63;;
6997;SDS011;3539;47.982;12.238;2023-02-15T08:16:31;16.60;;;12.93;;
6997;SDS011;3539;47.982;12.238;2023-02-15T08:19:00;18.37;;;13.10;;
6997;SDS011;3539;47.982;12.238;2023-02-15T08:21:29;16.37;;;12.60;;
6997;SDS011;3539;47.982;12.238;2023-02-15T08:23:58;16.77;;;12.57;;
6997;SDS011;3539;47.982;12.238;2023-02-15T08:26:25;37.07;;;23.00;;
6997;SDS011;3539;47.982;12.238;2023-02-15T08:28:53;24.27;;;17.30;;
6997;SDS011;3539;47.982;12.238;2023-02-15T08:31:20;17.87;;;14.10;;
6997;SDS011;3539;47.982;12.238;2023-02-15T08:33:48;30.60;;;19.10;;
6997;SDS011;3539;47.982;12.238;2023-02-15T08:36:16;22.40;;;15.63;;
6997;SDS011;3539;47.982;12.238;2023-02-15T08:38:44;16.10;;;11.87;;
6997;SDS011;3539;47.982;12.238;2023-02-15T08:41:14;14.40;;;12.07;;
6997;SDS011;3539;47.982;12.238;2023-02-15T08:43:42;17.33;;;12.93;;
6997;SDS011;3539;47.982;12.238;2023-02-15T08:46:09;13.17;;;10.27;;
6997;SDS011;3539;47.982;12.238;2023-02-15T08:48:37;12.50;;;10.37;;
6997;SDS011;3539;47.982;12.238;2023-02-15T08:51:05;11.10;;;9.10;;
6997;SDS011;3539;47.982;12.238;2023-02-15T08:53:33;13.53;;;10.37;;
6997;SDS011;3539;47.982;12.238;2023-02-15T08:55:59;12.50;;;10.27;;
6997;SDS011;3539;47.982;12.238;2023-02-15T08:58:27;12.03;;;10.53;;
6997;SDS011;3539;47.982;12.238;2023-02-15T09:00:55;11.47;;;10.17;;
6997;SDS011;3539;47.982;12.238;2023-02-15T09:03:22;12.10;;;9.97;;
6997;SDS011;3539;47.982;12.238;2023-02-15T09:05:49;11.73;;;10.47;;
6997;SDS011;3539;47.982;12.238;2023-02-15T09:08:16;11.70;;;9.63;;
6997;SDS011;3539;47.982;12.238;2023-02-15T09:10:43;11.43;;;10.23;;
6997;SDS011;3539;47.982;12.238;2023-02-15T09:13:09;11.43;;;10.07;;
6997;SDS011;3539;47.982;12.238;2023-02-15T09:15:38;13.30;;;10.20;;
6997;SDS011;3539;47.982;12.238;2023-02-15T09:18:04;11.23;;;9.37;;
6997;SDS011;3539;47.982;12.238;2023-02-15T09:20:35;11.57;;;10.03;;
6997;SDS011;3539;47.982;12.238;2023-02-15T09:23:02;13.43;;;10.60;;
6997;SDS011;3539;47.982;12.238;2023-02-15T09:25:28;12.77;;;10.73;;
6997;SDS011;3539;47.982;12.238;2023-02-15T09:27:55;11.63;;;9.40;;
6997;SDS011;3539;47.982;12.238;2023-02-15T09:30:22;10.80;;;9.50;;
6997;SDS011;3539;47.982;12.238;2023-02-15T09:32:50;11.23;;;9.60;;
6997;SDS011;3539;47.982;12.238;2023-02-15T09:35:17;11.93;;;10.27;;
6997;SDS011;3539;47.982;12.238;2023-02-15T09:37:44;14.37;;;10.83;;
6997;SDS011;3539;47.982;12.238;2023-02-15T09:40:11;12.33;;;10.40;;
6997;SDS011;3539;47.982;12.238;2023-02-15T09:42:58;12.33;;;10.17;;
6997;SDS011;3539;47.982;12.238;2023-02-15T09:45:32;11.53;;;10.07;;
6997;SDS011;3539;47.982;12.238;2023-02-15T09:48:20;11.53;;;10.27;;
6997;SDS011;3539;47.982;12.238;2023-02-15T09:50:57;10.80;;;9.67;;
6997;SDS011;3539;47.982;12.238;2023-02-15T09:53:34;11.17;;;9.67;;
6997;SDS011;3539;47.982;12.238;2023-02-15T09:56:12;11.77;;;9.30;;
6997;SDS011;3539;47.982;12.238;2023-02-15T09:58:44;11.63;;;9.47;;
6997;SDS011;3539;47.982;12.238;2023-02-15T10:01:15;11.43;;;9.50;;
6997;SDS011;3539;47.982;12.238;2023-02-15T10:03:51;12.50;;;9.70;;
6997;SDS011;3539;47.982;12.238;2023-02-15T10:06:32;10.33;;;9.23;;
6997;SDS011;3539;47.982;12.238;2023-02-15T10:09:10;10.47;;;9.30;;
6997;SDS011;3539;47.982;12.238;2023-02-15T10:11:52;12.13;;;9.73;;
6997;SDS011;3539;47.982;12.238;2023-02-15T10:14:31;10.50;;;9.23;;
6997;SDS011;3539;47.982;12.238;2023-02-15T10:17:19;11.00;;;9.27;;
6997;SDS011;3539;47.982;12.238;2023-02-15T10:19:54;11.53;;;9.50;;
6997;SDS011;3539;47.982;12.238;2023-02-15T10:22:31;10.53;;;9.43;;
6997;SDS011;3539;47.982;12.238;2023-02-15T10:25:11;10.63;;;8.83;;
6997;SDS011;3539;47.982;12.238;2023-02-15T10:27:45;10.73;;;9.30;;
6997;SDS011;3539;47.982;12.238;2023-02-15T10:32:40;9.50;;;8.50;;
6997;SDS011;3539;47.982;12.238;2023-02-15T10:35:15;11.67;;;9.43;;
6997;SDS011;3539;47.982;12.238;2023-02-15T10:37:49;18.93;;;10.10;;
6997;SDS011;3539;47.982;12.238;2023-02-15T10:40:25;9.37;;;8.33;;
6997;SDS011;3539;47.982;12.238;2023-02-15T10:43:13;9.73;;;8.57;;
6997;SDS011;3539;47.982;12.238;2023-02-15T10:45:49;9.20;;;8.20;;
6997;SDS011;3539;47.982;12.238;2023-02-15T10:51:29;9.53;;;8.53;;
6997;SDS011;3539;47.982;12.238;2023-02-15T10:54:14;10.10;;;8.47;;
6997;SDS011;3539;47.982;12.238;2023-02-15T10:56:50;8.90;;;7.50;;
6997;SDS011;3539;47.982;12.238;2023-02-15T10:59:35;8.53;;;7.37;;
6997;SDS011;3539;47.982;12.238;2023-02-15T11:02:09;8.43;;;7.57;;
6997;SDS011;3539;47.982;12.238;2023-02-15T11:04:45;8.77;;;7.87;;
6997;SDS011;3539;47.982;12.238;2023-02-15T11:07:20;7.80;;;7.00;;
6997;SDS011;3539;47.982;12.238;2023-02-15T11:09:50;7.80;;;7.00;;
6997;SDS011;3539;47.982;12.238;2023-02-15T11:12:21;9.17;;;7.37;;
6997;SDS011;3539;47.982;12.238;2023-02-15T11:14:50;8.13;;;7.13;;
6997;SDS011;3539;47.982;12.238;2023-02-15T11:17:21;8.60;;;7.10;;
6997;SDS011;3539;47.982;12.238;2023-02-15T11:19:52;8.77;;;7.40;;
6997;SDS011;3539;47.982;12.238;2023-02-15T11:22:24;9.27;;;7.77;;
6997;SDS011;3539;47.982;12.238;2023-02-15T11:24:51;8.10;;;7.30;;
6997;SDS011;3539;47.982;12.238;2023-02-15T11:27:20;8.90;;;8.00;;
6997;SDS011;3539;47.982;12.238;2023-02-15T11:29:52;9.23;;;7.83;;
6997;SDS011;3539;47.982;12.238;2023-02-15T11:32:21;9.47;;;7.70;;
6997;SDS011;3539;47.982;12.238;2023-02-15T11:34:50;8.30;;;7.47;;
6997;SDS011;3539;47.982;12.238;2023-02-15T11:37:20;8.73;;;7.50;;
6997;SDS011;3539;47.982;12.238;2023-02-15T11:39:53;8.53;;;7.63;;
6997;SDS011;3539;47.982;12.238;2023-02-15T11:42:22;8.77;;;7.83;;
6997;SDS011;3539;47.982;12.238;2023-02-15T11:44:52;11.80;;;8.77;;
6997;SDS011;3539;47.982;12.238;2023-02-15T11:47:22;8.23;;;7.43;;
6997;SDS011;3539;47.982;12.238;2023-02-15T11:49:49;7.50;;;6.57;;
6997;SDS011;3539;47.982;12.238;2023-02-15T11:52:16;8.10;;;7.30;;
6997;SDS011;3539;47.982;12.238;2023-02-15T11:54:46;9.47;;;7.27;;
6997;SDS011;3539;47.982;12.238;2023-02-15T11:57:15;7.90;;;7.07;;
6997;SDS011;3539;47.982;12.238;2023-02-15T11:59:46;7.60;;;6.63;;
6997;SDS011;3539;47.982;12.238;2023-02-15T12:02:17;9.43;;;6.50;;
6997;SDS011;3539;47.982;12.238;2023-02-15T12:04:48;8.13;;;6.57;;
6997;SDS011;3539;47.982;12.238;2023-02-15T12:07:17;8.87;;;6.83;;
6997;SDS011;3539;47.982;12.238;2023-02-15T12:09:50;8.00;;;6.50;;
6997;SDS011;3539;47.982;12.238;2023-02-15T12:12:22;7.63;;;6.47;;
6997;SDS011;3539;47.982;12.238;2023-02-15T12:14:50;7.93;;;6.37;;
6997;SDS011;3539;47.982;12.238;2023-02-15T12:17:18;7.87;;;7.07;;
6997;SDS011;3539;47.982;12.238;2023-02-15T12:19:47;7.13;;;6.17;;
6997;SDS011;3539;47.982;12.238;2023-02-15T12:22:18;8.50;;;7.33;;
6997;SDS011;3539;47.982;12.238;2023-02-15T12:24:50;9.13;;;7.70;;
6997;SDS011;3539;47.982;12.238;2023-02-15T12:27:18;7.87;;;6.80;;
6997;SDS011;3539;47.982;12.238;2023-02-15T12:29:48;8.83;;;7.33;;
6997;SDS011;3539;47.982;12.238;2023-02-15T12:32:17;7.23;;;6.53;;
6997;SDS011;3539;47.982;12.238;2023-02-15T12:34:45;6.70;;;6.00;;
6997;SDS011;3539;47.982;12.238;2023-02-15T12:37:15;40.83;;;17.50;;
6997;SDS011;3539;47.982;12.238;2023-02-15T12:39:54;150.43;;;52.57;;
6997;SDS011;3539;47.982;12.238;2023-02-15T12:42:23;50.10;;;24.97;;
6997;SDS011;3539;47.982;12.238;2023-02-15T12:44:57;30.30;;;17.50;;
6997;SDS011;3539;47.982;12.238;2023-02-15T12:47:26;25.10;;;14.03;;
6997;SDS011;3539;47.982;12.238;2023-02-15T12:50:06;14.93;;;10.60;;
6997;SDS011;3539;47.982;12.238;2023-02-15T12:52:43;8.10;;;7.30;;
6997;SDS011;3539;47.982;12.238;2023-02-15T12:55:19;7.50;;;6.33;;
6997;SDS011;3539;47.982;12.238;2023-02-15T12:57:48;7.93;;;6.40;;
6997;SDS011;3539;47.982;12.238;2023-02-15T13:00:25;10.67;;;7.07;;
6997;SDS011;3539;47.982;12.238;2023-02-15T13:02:54;6.77;;;5.87;;
6997;SDS011;3539;47.982;12.238;2023-02-15T13:05:24;7.10;;;6.23;;
6997;SDS011;3539;47.982;12.238;2023-02-15T13:07:53;7.07;;;6.20;;
6997;SDS011;3539;47.982;12.238;2023-02-15T13:10:25;6.30;;;5.70;;
6997;SDS011;3539;47.982;12.238;2023-02-15T13:12:53;6.63;;;5.73;;
6997;SDS011;3539;47.982;12.238;2023-02-15T13:15:33;6.30;;;5.43;;
6997;SDS011;3539;47.982;12.238;2023-02-15T13:18:02;7.10;;;5.70;;
6997;SDS011;3539;47.982;12.238;2023-02-15T13:20:31;7.77;;;5.97;;
6997;SDS011;3539;47.982;12.238;2023-02-15T13:22:58;6.63;;;5.93;;
6997;SDS011;3539;47.982;12.238;2023-02-15T13:25:32;6.40;;;5.80;;
6997;SDS011;3539;47.982;12.238;2023-02-15T13:28:05;6.70;;;5.93;;
6997;SDS011;3539;47.982;12.238;2023-02-15T13:30:34;7.43;;;6.07;;
6997;SDS011;3539;47.982;12.238;2023-02-15T13:33:03;6.73;;;6.10;;
6997;SDS011;3539;47.982;12.238;2023-02-15T13:35:34;6.97;;;6.17;;
6997;SDS011;3539;47.982;12.238;2023-02-15T13:38:09;7.03;;;6.07;;
6997;SDS011;3539;47.982;12.238;2023-02-15T13:40:44;8.17;;;6.10;;
6997;SDS011;3539;47.982;12.238;2023-02-15T13:43:18;6.63;;;5.87;;
6997;SDS011;3539;47.982;12.238;2023-02-15T13:45:55;6.97;;;6.27;;
6997;SDS011;3539;47.982;12.238;2023-02-15T13:48:30;7.30;;;6.50;;
6997;SDS011;3539;47.982;12.238;2023-02-15T13:51:06;6.67;;;6.07;;
6997;SDS011;3539;47.982;12.238;2023-02-15T13:53:43;7.13;;;6.43;;
6997;SDS011;3539;47.982;12.238;2023-02-15T13:56:25;9.43;;;6.93;;
6997;SDS011;3539;47.982;12.238;2023-02-15T13:59:16;8.00;;;6.87;;
6997;SDS011;3539;47.982;12.238;2023-02-15T14:01:50;9.40;;;7.30;;
6997;SDS011;3539;47.982;12.238;2023-02-15T14:04:24;13.47;;;6.77;;
6997;SDS011;3539;47.982;12.238;2023-02-15T14:07:03;8.30;;;6.70;;
6997;SDS011;3539;47.982;12.238;2023-02-15T14:09:40;8.33;;;6.10;;
6997;SDS011;3539;47.982;12.238;2023-02-15T14:12:26;7.47;;;6.20;;
6997;SDS011;3539;47.982;12.238;2023-02-15T14:15:12;7.60;;;6.83;;
6997;SDS011;3539;47.982;12.238;2023-02-15T14:17:48;7.90;;;6.23;;
6997;SDS011;3539;47.982;12.238;2023-02-15T14:20:22;8.33;;;6.40;;
6997;SDS011;3539;47.982;12.238;2023-02-15T14:22:53;8.93;;;6.93;;
6997;SDS011;3539;47.982;12.238;2023-02-15T14:25:27;8.57;;;6.63;;
6997;SDS011;3539;47.982;12.238;2023-02-15T14:27:59;7.73;;;6.27;;
6997;SDS011;3539;47.982;12.238;2023-02-15T14:30:31;7.53;;;6.47;;
6997;SDS011;3539;47.982;12.238;2023-02-15T14:33:01;7.90;;;6.60;;
6997;SDS011;3539;47.982;12.238;2023-02-15T14:35:31;8.10;;;7.00;;
6997;SDS011;3539;47.982;12.238;2023-02-15T14:37:58;7.73;;;6.40;;
6997;SDS011;3539;47.982;12.238;2023-02-15T14:40:34;7.67;;;6.53;;
6997;SDS011;3539;47.982;12.238;2023-02-15T14:43:27;7.67;;;6.60;;
6997;SDS011;3539;47.982;12.238;2023-02-15T14:46:00;8.07;;;6.80;;
6997;SDS011;3539;47.982;12.238;2023-02-15T14:48:30;9.93;;;6.60;;
6997;SDS011;3539;47.982;12.238;2023-02-15T14:50:58;7.43;;;6.73;;
6997;SDS011;3539;47.982;12.238;2023-02-15T14:56:15;10.37;;;7.53;;
6997;SDS011;3539;47.982;12.238;2023-02-15T14:58:55;8.03;;;6.90;;
6997;SDS011;3539;47.982;12.238;2023-02-15T15:01:38;9.23;;;6.93;;
6997;SDS011;3539;47.982;12.238;2023-02-15T15:04:06;7.97;;;7.17;;
6997;SDS011;3539;47.982;12.238;2023-02-15T15:06:34;9.87;;;7.53;;
6997;SDS011;3539;47.982;12.238;2023-02-15T15:09:09;14.90;;;7.87;;
6997;SDS011;3539;47.982;12.238;2023-02-15T15:11:38;8.57;;;7.67;;
6997;SDS011;3539;47.982;12.238;2023-02-15T15:14:08;10.47;;;7.87;;
6997;SDS011;3539;47.982;12.238;2023-02-15T15:16:48;8.90;;;7.83;;